createdAt,value
2022-10-24T00:01:22.316Z,16.13
2022-10-24T00:04:25.168Z,16.06
2022-10-24T00:07:28.236Z,16.09
2022-10-24T00:10:32.999Z,16.05
2022-10-24T00:13:35.828Z,16.11
2022-10-24T00:16:38.671Z,16.02
2022-10-24T00:19:41.514Z,16.29
2022-10-24T00:22:44.680Z,16.33
2022-10-24T00:25:49.214Z,16.63
2022-10-24T00:28:52.157Z,16.73
2022-10-24T00:31:55.040Z,16.78
2022-10-24T00:34:57.977Z,16.80
2022-10-24T00:38:00.844Z,16.82
2022-10-24T00:41:05.344Z,16.86
2022-10-24T00:44:20.934Z,16.82
2022-10-24T00:47:26.152Z,16.72
2022-10-24T00:50:30.035Z,16.78
2022-10-24T00:53:36.721Z,16.68
2022-10-24T00:56:44.542Z,16.65
2022-10-24T00:59:52.618Z,16.56
2022-10-24T01:02:55.864Z,16.44
2022-10-24T01:06:23.207Z,16.43
2022-10-24T01:09:41.113Z,16.31
2022-10-24T01:12:54.147Z,16.29
2022-10-24T01:16:06.830Z,16.23
2022-10-24T01:19:29.953Z,16.16
2022-10-24T01:22:37.357Z,16.16
2022-10-24T01:25:51.616Z,16.13
2022-10-24T01:29:05.718Z,16.17
2022-10-24T01:32:16.155Z,16.18
2022-10-24T01:35:37.146Z,16.09
2022-10-24T01:38:45.886Z,16.03
2022-10-24T01:41:49.358Z,15.96
2022-10-24T01:44:57.192Z,15.91
2022-10-24T01:48:04.732Z,15.88
2022-10-24T01:51:10.304Z,15.90
2022-10-24T01:54:14.163Z,15.91
2022-10-24T01:57:17.256Z,15.87
2022-10-24T02:00:22.883Z,15.74
2022-10-24T02:03:32.160Z,15.58
2022-10-24T02:06:37.846Z,15.41
2022-10-24T02:09:44.747Z,15.37
2022-10-24T02:12:52.172Z,15.34
2022-10-24T02:15:59.303Z,15.40
2022-10-24T02:19:03.679Z,15.33
2022-10-24T02:22:17.314Z,15.30
2022-10-24T02:25:25.695Z,15.21
2022-10-24T02:28:34.895Z,15.15
2022-10-24T02:31:43.659Z,15.13
2022-10-24T02:34:48.849Z,15.15
2022-10-24T02:37:56.321Z,14.95
2022-10-24T02:41:00.203Z,14.95
2022-10-24T02:44:04.928Z,14.94
2022-10-24T02:47:12.233Z,14.97
2022-10-24T02:50:16.659Z,14.86
2022-10-24T02:53:22.369Z,14.96
2022-10-24T02:56:25.260Z,15.03
2022-10-24T02:59:28.268Z,15.03
2022-10-24T03:02:31.088Z,14.94
2022-10-24T03:05:35.381Z,14.94
2022-10-24T03:08:38.325Z,14.85
2022-10-24T03:11:41.554Z,14.86
2022-10-24T03:14:44.473Z,14.84
2022-10-24T03:17:49.164Z,14.84
2022-10-24T03:20:53.494Z,14.98
2022-10-24T03:23:56.449Z,14.95
2022-10-24T03:26:59.321Z,14.94
2022-10-24T03:30:02.280Z,14.92
2022-10-24T03:33:05.395Z,14.93
2022-10-24T03:36:10.238Z,14.75
2022-10-24T03:39:13.096Z,14.72
2022-10-24T03:42:15.938Z,14.72
2022-10-24T03:45:18.952Z,14.70
2022-10-24T03:48:21.832Z,14.75
2022-10-24T03:51:26.037Z,14.74
2022-10-24T03:54:29.030Z,14.72
2022-10-24T03:57:31.897Z,14.77
2022-10-24T04:00:39.209Z,14.77
2022-10-24T04:03:42.149Z,14.80
2022-10-24T04:06:46.368Z,14.77
2022-10-24T04:09:49.277Z,14.67
2022-10-24T04:12:52.137Z,14.68
2022-10-24T04:15:54.983Z,14.70
2022-10-24T04:18:57.825Z,14.72
2022-10-24T04:22:02.064Z,14.71
2022-10-24T04:25:05.685Z,14.73
2022-10-24T04:28:08.626Z,14.69
2022-10-24T04:31:11.536Z,14.64
2022-10-24T04:34:14.462Z,14.60
2022-10-24T04:37:18.695Z,14.55
2022-10-24T04:40:21.593Z,14.55
2022-10-24T04:43:27.024Z,14.40
2022-10-24T04:46:29.893Z,14.44
2022-10-24T04:49:32.955Z,14.51
2022-10-24T04:52:37.346Z,14.19
2022-10-24T04:55:40.231Z,14.30
2022-10-24T04:58:43.122Z,14.30
2022-10-24T05:01:46.077Z,14.17
2022-10-24T05:04:48.977Z,14.20
2022-10-24T05:07:53.389Z,14.22
2022-10-24T05:10:56.203Z,14.17
2022-10-24T05:13:59.364Z,14.27
2022-10-24T05:17:02.261Z,14.34
2022-10-24T05:20:07.232Z,14.34
2022-10-24T05:23:11.508Z,14.38
2022-10-24T05:26:14.525Z,14.43
2022-10-24T05:29:17.391Z,14.48
2022-10-24T05:32:21.731Z,14.48
2022-10-24T05:35:24.567Z,14.53
2022-10-24T05:38:28.870Z,14.51
2022-10-24T05:41:32.692Z,14.54
2022-10-24T05:44:35.636Z,14.53
2022-10-24T05:47:38.543Z,14.58
2022-10-24T05:50:41.879Z,14.58
2022-10-24T05:53:46.329Z,14.56
2022-10-24T05:56:49.508Z,14.53
2022-10-24T05:59:52.382Z,14.51
2022-10-24T06:02:55.270Z,14.47
2022-10-24T06:05:58.168Z,14.44
2022-10-24T06:09:02.456Z,14.46
2022-10-24T06:12:07.986Z,14.44
2022-10-24T06:15:13.169Z,14.55
2022-10-24T06:18:16.061Z,14.54
2022-10-24T06:21:19.000Z,14.59
2022-10-24T06:24:23.261Z,14.65
2022-10-24T06:27:26.127Z,14.65
2022-10-24T06:30:29.348Z,14.67
2022-10-24T06:33:32.544Z,14.68
2022-10-24T06:36:36.947Z,14.68
2022-10-24T06:39:41.303Z,14.73
2022-10-24T06:42:44.202Z,14.75
2022-10-24T06:45:47.235Z,14.76
2022-10-24T06:48:50.686Z,14.84
2022-10-24T06:51:53.902Z,14.96
2022-10-24T06:54:58.187Z,14.94
2022-10-24T06:58:01.072Z,14.91
2022-10-24T07:01:09.328Z,14.93
2022-10-24T07:04:12.372Z,14.89
2022-10-24T07:07:17.106Z,14.91
2022-10-24T07:10:21.368Z,14.93
2022-10-24T07:13:24.281Z,14.97
2022-10-24T07:16:27.382Z,15.06
2022-10-24T07:19:31.825Z,15.06
2022-10-24T07:22:37.174Z,15.09
2022-10-24T07:25:42.178Z,15.08
2022-10-24T07:28:47.173Z,15.10
2022-10-24T07:31:50.094Z,15.14
2022-10-24T07:34:53.091Z,15.18
2022-10-24T07:37:56.002Z,15.17
2022-10-24T07:41:04.409Z,15.14
2022-10-24T07:44:07.402Z,15.14
2022-10-24T07:47:11.467Z,15.18
2022-10-24T07:50:15.722Z,15.14
2022-10-24T07:53:18.584Z,15.14
2022-10-24T07:56:22.867Z,15.14
2022-10-24T07:59:41.170Z,15.22
2022-10-24T08:02:44.502Z,15.28
2022-10-24T08:05:48.238Z,15.34
2022-10-24T08:08:51.242Z,15.36
2022-10-24T08:11:55.477Z,15.44
2022-10-24T08:14:58.463Z,15.51
2022-10-24T08:18:01.297Z,15.60
2022-10-24T08:21:06.950Z,15.61
2022-10-24T08:24:10.110Z,15.64
2022-10-24T08:27:14.446Z,15.68
2022-10-24T08:30:20.339Z,15.72
2022-10-24T08:33:23.310Z,15.76
2022-10-24T08:36:28.820Z,15.81
2022-10-24T08:39:31.835Z,15.83
2022-10-24T08:42:37.199Z,15.87
2022-10-24T08:45:46.947Z,15.96
2022-10-24T08:48:55.023Z,15.93
2022-10-24T08:52:01.843Z,15.94
2022-10-24T08:55:25.114Z,15.97
2022-10-24T08:58:34.831Z,15.99
2022-10-24T09:01:44.317Z,16.02
2022-10-24T09:04:52.414Z,16.01
2022-10-24T09:08:02.674Z,16.05
2022-10-24T09:11:07.845Z,15.94
2022-10-24T09:14:17.021Z,15.95
2022-10-24T09:17:22.772Z,15.94
2022-10-24T09:20:27.752Z,15.94
2022-10-24T09:23:33.888Z,15.88
2022-10-24T09:26:40.402Z,15.86
2022-10-24T09:29:46.764Z,15.80
2022-10-24T09:32:49.762Z,15.70
2022-10-24T09:35:53.458Z,15.71
2022-10-24T09:38:56.385Z,15.67
2022-10-24T09:42:00.890Z,15.72
2022-10-24T09:45:19.728Z,15.64
2022-10-24T09:48:29.326Z,15.70
2022-10-24T09:51:35.714Z,15.71
2022-10-24T09:54:38.645Z,15.74
2022-10-24T09:57:42.494Z,15.77
2022-10-24T10:00:58.548Z,15.74
2022-10-24T10:04:08.393Z,15.62
2022-10-24T10:07:14.889Z,15.64
2022-10-24T10:10:30.925Z,15.69
2022-10-24T10:13:41.022Z,15.72
2022-10-24T10:16:45.411Z,15.68
2022-10-24T10:19:49.151Z,15.77
2022-10-24T10:22:52.206Z,15.80
2022-10-24T10:26:23.968Z,15.85
2022-10-24T10:29:26.915Z,15.87
2022-10-24T10:32:38.968Z,15.83
2022-10-24T10:35:50.150Z,15.78
2022-10-24T10:38:56.797Z,15.86
2022-10-24T10:42:04.236Z,15.90
2022-10-24T10:45:25.880Z,15.93
2022-10-24T10:48:41.592Z,15.99
2022-10-24T10:51:49.165Z,16.03
2022-10-24T10:55:09.588Z,16.08
2022-10-24T10:58:25.895Z,16.04
2022-10-24T11:01:38.201Z,16.06
2022-10-24T11:04:52.262Z,16.07
2022-10-24T11:08:17.205Z,16.10
2022-10-24T11:11:25.705Z,16.11
2022-10-24T11:14:33.782Z,16.12
2022-10-24T11:17:43.633Z,16.14
2022-10-24T11:20:53.262Z,16.16
2022-10-24T11:24:01.542Z,16.14
2022-10-24T11:27:10.630Z,16.10
2022-10-24T11:30:20.797Z,16.10
2022-10-24T11:33:27.111Z,16.11
2022-10-24T11:36:39.283Z,16.11
2022-10-24T11:39:48.484Z,16.11
2022-10-24T11:42:57.326Z,16.10
2022-10-24T11:46:07.191Z,16.26
2022-10-24T11:49:18.476Z,16.25
2022-10-24T11:52:27.749Z,16.32
2022-10-24T11:55:39.016Z,16.26
2022-10-24T11:58:52.135Z,16.20
2022-10-24T12:02:38.340Z,16.15
2022-10-24T12:05:58.978Z,16.19
2022-10-24T12:09:15.286Z,16.21
2022-10-24T12:12:36.996Z,16.12
2022-10-24T12:15:48.146Z,16.09
2022-10-24T12:18:53.362Z,16.06
2022-10-24T12:22:00.295Z,16.10
2022-10-24T12:25:08.148Z,16.15
2022-10-24T12:28:22.383Z,16.14
2022-10-24T12:31:29.516Z,16.13
2022-10-24T12:34:48.957Z,16.11
2022-10-24T12:37:52.377Z,16.15
2022-10-24T12:40:58.850Z,16.19
2022-10-24T12:44:51.574Z,16.25
2022-10-24T12:48:26.818Z,16.29
2022-10-24T12:51:31.756Z,16.33
2022-10-24T12:54:42.782Z,16.37
2022-10-24T12:57:48.581Z,16.38
2022-10-24T13:00:56.349Z,16.36
2022-10-24T13:04:29.943Z,16.43
2022-10-24T13:08:09.148Z,16.45
2022-10-24T13:11:29.714Z,16.46
2022-10-24T13:14:55.360Z,16.43
2022-10-24T13:18:09.039Z,16.44
2022-10-24T13:21:25.539Z,16.46
2022-10-24T13:24:34.851Z,16.47
2022-10-24T13:27:37.783Z,16.51
2022-10-24T13:30:44.762Z,16.51
2022-10-24T13:33:51.012Z,16.50
2022-10-24T13:37:08.380Z,16.52
2022-10-24T13:40:17.515Z,16.64
2022-10-24T13:43:21.266Z,16.77
2022-10-24T13:46:31.768Z,16.75
2022-10-24T13:49:38.556Z,16.83
2022-10-24T13:52:49.440Z,16.82
2022-10-24T13:55:52.686Z,16.84
2022-10-24T13:58:55.668Z,16.85
2022-10-24T14:02:03.036Z,16.84
2022-10-24T14:05:06.559Z,16.86
2022-10-24T14:08:10.119Z,16.82
2022-10-24T14:11:19.732Z,16.74
2022-10-24T14:14:31.192Z,16.71
2022-10-24T14:17:36.251Z,16.72
2022-10-24T14:20:39.315Z,16.59
2022-10-24T14:23:42.793Z,16.68
2022-10-24T14:26:46.665Z,16.59
2022-10-24T14:29:58.884Z,16.60
2022-10-24T14:33:21.555Z,16.46
2022-10-24T14:36:32.057Z,16.38
2022-10-24T14:39:36.182Z,16.33
2022-10-24T14:42:40.352Z,16.24
2022-10-24T14:45:43.507Z,16.35
2022-10-24T14:48:49.832Z,16.22
2022-10-24T14:51:55.055Z,16.15
2022-10-24T14:55:03.492Z,16.19
2022-10-24T14:58:06.436Z,16.17
2022-10-24T15:01:18.555Z,16.09
2022-10-24T15:04:32.520Z,16.10
2022-10-24T15:07:38.792Z,16.06
2022-10-24T15:10:44.002Z,16.09
2022-10-24T15:14:05.252Z,16.00
2022-10-24T15:17:28.439Z,16.02
2022-10-24T15:20:39.989Z,16.03
2022-10-24T15:23:48.200Z,15.97
2022-10-24T15:26:52.322Z,15.90
2022-10-24T15:29:55.318Z,15.94
2022-10-24T15:33:00.305Z,15.85
2022-10-24T15:36:06.489Z,15.80
2022-10-24T15:39:14.905Z,15.83
2022-10-24T15:42:20.178Z,15.82
2022-10-24T15:45:28.215Z,15.80
2022-10-24T15:48:31.624Z,15.84
2022-10-24T15:51:39.340Z,15.79
2022-10-24T15:54:42.875Z,15.80
2022-10-24T15:57:46.745Z,15.72
2022-10-24T16:00:50.751Z,15.72
2022-10-24T16:03:53.929Z,15.66
2022-10-24T16:06:58.259Z,15.70
2022-10-24T16:10:01.292Z,15.69
2022-10-24T16:13:04.105Z,15.59
2022-10-24T16:16:07.909Z,15.60
2022-10-24T16:19:11.344Z,15.55
2022-10-24T16:22:17.167Z,15.59
2022-10-24T16:25:22.194Z,15.63
2022-10-24T16:28:26.067Z,15.62
2022-10-24T16:31:29.037Z,15.47
2022-10-24T16:34:32.030Z,15.55
2022-10-24T16:37:36.756Z,15.40
2022-10-24T16:43:46.306Z,15.42
2022-10-24T16:46:53.715Z,15.55
2022-10-24T16:49:57.302Z,15.56
2022-10-24T16:53:03.541Z,15.50
2022-10-24T16:56:09.763Z,15.37
2022-10-24T16:59:15.416Z,15.25
2022-10-24T17:02:19.339Z,15.24
2022-10-24T17:05:25.203Z,15.27
2022-10-24T17:08:29.710Z,15.17
2022-10-24T17:11:44.801Z,15.16
2022-10-24T17:14:48.658Z,15.16
2022-10-24T17:17:51.829Z,15.22
2022-10-24T17:21:00.058Z,15.18
2022-10-24T17:24:04.851Z,14.99
2022-10-24T17:27:11.502Z,15.09
2022-10-24T17:30:18.456Z,15.12
2022-10-24T17:33:21.687Z,15.12
2022-10-24T17:36:28.855Z,14.98
2022-10-24T17:39:43.038Z,15.02
2022-10-24T17:42:49.445Z,14.98
2022-10-24T17:45:53.751Z,14.93
2022-10-24T17:48:57.987Z,14.84
2022-10-24T17:52:01.039Z,14.88
2022-10-24T17:55:07.211Z,14.92
2022-10-24T17:58:12.259Z,14.88
2022-10-24T18:01:15.682Z,14.83
2022-10-24T18:04:18.746Z,14.85
2022-10-24T18:07:21.669Z,14.82
2022-10-24T18:10:27.936Z,14.86
2022-10-24T18:13:32.794Z,14.83
2022-10-24T18:16:37.095Z,14.82
2022-10-24T18:19:40.376Z,14.78
2022-10-24T18:22:45.119Z,14.84
2022-10-24T18:25:49.624Z,14.85
2022-10-24T18:28:54.285Z,14.71
2022-10-24T18:31:57.251Z,14.77
2022-10-24T18:35:00.185Z,14.75
2022-10-24T18:38:03.242Z,14.69
2022-10-24T18:41:25.119Z,14.64
2022-10-24T18:44:30.093Z,14.73
2022-10-24T18:47:34.042Z,14.74
2022-10-24T18:50:37.647Z,14.69
2022-10-24T18:53:42.889Z,14.73
2022-10-24T18:56:47.719Z,14.72
2022-10-24T18:59:51.136Z,14.72
2022-10-24T19:03:05.196Z,14.67
2022-10-24T19:06:18.610Z,14.68
2022-10-24T19:09:23.530Z,14.64
2022-10-24T19:12:28.301Z,14.68
2022-10-24T19:15:31.762Z,14.62
2022-10-24T19:18:37.577Z,14.59
2022-10-24T19:21:40.712Z,14.57
2022-10-24T19:24:43.635Z,14.54
2022-10-24T19:27:49.319Z,14.57
2022-10-24T19:30:52.880Z,14.54
2022-10-24T19:33:55.793Z,14.49
2022-10-24T19:36:58.741Z,14.48
2022-10-24T19:40:01.777Z,14.51
2022-10-24T19:43:06.079Z,14.48
2022-10-24T19:46:24.672Z,14.45
2022-10-24T19:49:27.689Z,14.53
2022-10-24T19:52:30.558Z,14.54
2022-10-24T19:55:37.226Z,14.55
2022-10-24T19:58:42.981Z,14.53
2022-10-24T20:01:46.138Z,14.61
2022-10-24T20:04:49.359Z,14.59
2022-10-24T20:07:52.346Z,14.55
2022-10-24T20:10:56.133Z,14.55
2022-10-24T20:14:00.469Z,14.58
2022-10-24T20:17:03.358Z,14.56
2022-10-24T20:20:09.603Z,14.49
2022-10-24T20:23:12.617Z,14.48
2022-10-24T20:26:18.365Z,14.46
2022-10-24T20:29:22.714Z,14.38
2022-10-24T20:32:25.682Z,14.39
2022-10-24T20:35:28.617Z,14.36
2022-10-24T20:38:33.957Z,14.43
2022-10-24T20:41:37.725Z,14.37
2022-10-24T20:44:42.026Z,14.32
2022-10-24T20:47:45.266Z,14.17
2022-10-24T20:50:48.413Z,14.20
2022-10-24T20:53:51.937Z,14.36
2022-10-24T20:56:54.940Z,14.44
2022-10-24T20:59:59.291Z,14.43
2022-10-24T21:03:02.182Z,14.47
2022-10-24T21:06:06.530Z,14.49
2022-10-24T21:09:09.474Z,14.52
2022-10-24T21:12:12.349Z,14.50
2022-10-24T21:15:16.892Z,14.47
2022-10-24T21:18:19.785Z,14.42
2022-10-24T21:21:25.915Z,14.46
2022-10-24T21:24:28.928Z,14.43
2022-10-24T21:27:32.648Z,14.38
2022-10-24T21:30:36.864Z,14.32
2022-10-24T21:33:41.540Z,14.33
2022-10-24T21:36:44.378Z,14.32
2022-10-24T21:39:47.195Z,14.26
2022-10-24T21:42:50.456Z,14.36
2022-10-24T21:46:02.568Z,14.33
2022-10-24T21:49:05.493Z,14.27
2022-10-24T21:52:11.339Z,14.28
2022-10-24T21:55:15.351Z,14.30
2022-10-24T21:58:19.938Z,14.25
2022-10-24T22:01:26.393Z,14.21
2022-10-24T22:04:29.643Z,14.12
2022-10-24T22:07:32.486Z,14.12
2022-10-24T22:10:35.938Z,14.18
2022-10-24T22:13:39.349Z,14.20
2022-10-24T22:16:44.678Z,14.16
2022-10-24T22:19:48.133Z,14.12
2022-10-24T22:22:53.045Z,14.09
2022-10-24T22:25:56.213Z,14.09
2022-10-24T22:28:59.260Z,14.11
2022-10-24T22:32:04.395Z,14.12
2022-10-24T22:35:11.774Z,14.16
2022-10-24T22:38:17.072Z,14.13
2022-10-24T22:41:20.702Z,14.08
2022-10-24T22:44:24.383Z,13.99
2022-10-24T22:47:45.320Z,14.06
2022-10-24T22:50:53.393Z,14.00
2022-10-24T22:53:58.744Z,13.94
2022-10-24T22:57:02.688Z,13.92
2022-10-24T23:00:06.804Z,13.93
2022-10-24T23:03:25.455Z,13.78
2022-10-24T23:06:34.912Z,13.79
2022-10-24T23:09:37.906Z,13.81
2022-10-24T23:12:42.010Z,13.81
2022-10-24T23:15:45.152Z,13.79
2022-10-24T23:18:49.991Z,13.75
2022-10-24T23:21:57.629Z,13.77
2022-10-24T23:25:02.035Z,13.73
2022-10-24T23:28:13.307Z,13.63
2022-10-24T23:31:16.718Z,13.62
2022-10-24T23:34:21.920Z,13.63
2022-10-24T23:37:34.052Z,13.49
2022-10-24T23:40:38.013Z,13.44
2022-10-24T23:43:41.420Z,13.44
2022-10-24T23:46:47.896Z,13.44
2022-10-24T23:50:03.213Z,13.44
2022-10-24T23:53:23.226Z,13.47
2022-10-24T23:56:28.415Z,13.42
2022-10-24T23:59:31.263Z,13.37
